createdAt,value
2019-04-14T00:01:41.270Z,2.60
2019-04-14T00:04:22.504Z,2.60
2019-04-14T00:06:52.629Z,2.60
2019-04-14T00:09:22.729Z,2.60
2019-04-14T00:11:52.682Z,2.50
2019-04-14T00:14:22.914Z,2.50
2019-04-14T00:16:53.187Z,2.50
2019-04-14T00:19:23.854Z,2.60
2019-04-14T00:21:54.422Z,2.60
2019-04-14T00:24:24.929Z,2.60
2019-04-14T00:26:55.233Z,2.60
2019-04-14T00:29:26.305Z,2.60
2019-04-14T00:31:56.988Z,2.60
2019-04-14T00:34:40.350Z,2.60
2019-04-14T00:37:12.100Z,2.60
2019-04-14T00:39:46.575Z,2.50
2019-04-14T00:42:27.728Z,2.60
2019-04-14T00:45:02.825Z,2.60
2019-04-14T00:47:49.831Z,2.60
2019-04-14T00:50:10.058Z,2.50
2019-04-14T00:52:39.751Z,2.60
2019-04-14T00:55:09.817Z,2.50
2019-04-14T00:57:39.845Z,2.40
2019-04-14T01:00:10.377Z,2.40
2019-04-14T01:02:40.724Z,2.20
2019-04-14T01:05:10.945Z,2.10
2019-04-14T01:07:41.308Z,2.00
2019-04-14T01:10:11.324Z,1.90
2019-04-14T01:12:41.008Z,1.90
2019-04-14T01:15:11.500Z,1.80
2019-04-14T01:17:41.787Z,1.80
2019-04-14T01:20:12.523Z,1.80
2019-04-14T01:22:42.459Z,1.70
2019-04-14T01:25:12.869Z,1.70
2019-04-14T01:27:42.908Z,1.70
2019-04-14T01:30:13.317Z,1.70
2019-04-14T01:32:43.661Z,1.70
2019-04-14T01:35:13.847Z,1.60
2019-04-14T01:37:44.114Z,1.60
2019-04-14T01:40:14.249Z,1.50
2019-04-14T01:42:44.203Z,1.50
2019-04-14T01:45:16.464Z,1.50
2019-04-14T01:47:46.726Z,1.40
2019-04-14T01:50:19.118Z,1.40
2019-04-14T01:52:54.424Z,1.40
2019-04-14T01:55:28.824Z,1.30
2019-04-14T01:58:18.736Z,1.30
2019-04-14T02:00:55.961Z,1.30
2019-04-14T02:03:25.988Z,1.30
2019-04-14T02:05:56.119Z,1.20
2019-04-14T02:08:26.250Z,1.20
2019-04-14T02:10:56.558Z,1.20
2019-04-14T02:13:26.830Z,1.20
2019-04-14T02:15:57.320Z,1.20
2019-04-14T02:18:27.281Z,1.20
2019-04-14T02:20:57.899Z,1.20
2019-04-14T02:23:27.995Z,1.10
2019-04-14T02:25:58.050Z,1.10
2019-04-14T02:28:28.867Z,1.00
2019-04-14T02:31:12.108Z,1.00
2019-04-14T02:34:07.406Z,1.10
2019-04-14T02:36:38.500Z,1.00
2019-04-14T02:39:13.803Z,1.00
2019-04-14T02:41:49.279Z,1.00
2019-04-14T02:44:33.548Z,1.00
2019-04-14T02:49:14.712Z,0.90
2019-04-14T02:51:50.223Z,0.80
2019-04-14T02:54:22.869Z,0.80
2019-04-14T02:57:12.546Z,0.80
2019-04-14T03:04:45.408Z,0.70
2019-04-14T03:07:14.411Z,0.70
2019-04-14T03:09:47.039Z,0.70
2019-04-14T03:12:19.156Z,0.60
2019-04-14T03:14:55.563Z,0.60
2019-04-14T03:23:02.600Z,0.60
2019-04-14T03:25:26.479Z,0.50
2019-04-14T03:28:12.504Z,0.40
2019-04-14T03:36:20.354Z,0.50
2019-04-14T03:38:24.776Z,0.40
2019-04-14T03:41:00.106Z,0.40
2019-04-14T03:43:26.615Z,0.30
2019-04-14T03:45:59.251Z,0.40
2019-04-14T03:51:03.809Z,0.30
2019-04-14T03:53:26.257Z,0.30
2019-04-14T03:55:54.352Z,0.20
2019-04-14T03:58:18.915Z,0.30
2019-04-14T04:00:49.175Z,0.20
2019-04-14T04:03:19.629Z,0.30
2019-04-14T04:05:49.970Z,0.20
2019-04-14T04:08:20.141Z,0.20
2019-04-14T04:10:55.344Z,0.10
2019-04-14T04:13:25.942Z,0.10
2019-04-14T04:15:58.303Z,0.10
2019-04-14T04:18:30.798Z,0.20
2019-04-14T04:21:02.925Z,0.10
2019-04-14T04:23:44.595Z,0.10
2019-04-14T04:26:34.390Z,0.10
2019-04-14T04:29:06.890Z,0.20
2019-04-14T04:31:54.896Z,0.20
2019-04-14T04:34:27.283Z,0.20
2019-04-14T04:36:59.588Z,0.20
2019-04-14T04:39:33.749Z,0.30
2019-04-14T04:42:02.703Z,0.40
2019-04-14T04:44:33.460Z,0.30
2019-04-14T04:47:03.511Z,0.40
2019-04-14T04:49:34.167Z,0.50
2019-04-14T04:52:04.137Z,0.60
2019-04-14T04:54:34.256Z,0.70
2019-04-14T04:57:04.574Z,0.70
2019-04-14T04:59:34.553Z,0.70
2019-04-14T05:02:04.747Z,0.90
2019-04-14T05:04:35.096Z,0.90
2019-04-14T05:07:05.575Z,1.00
2019-04-14T05:09:37.036Z,1.10
2019-04-14T05:12:26.298Z,1.30
2019-04-14T05:15:00.968Z,1.50
2019-04-14T05:17:38.871Z,1.70
2019-04-14T05:20:09.572Z,1.80
2019-04-14T05:22:39.810Z,2.00
2019-04-14T05:25:10.174Z,2.10
2019-04-14T05:27:40.835Z,2.30
2019-04-14T05:30:11.175Z,2.50
2019-04-14T05:32:41.290Z,2.40
2019-04-14T05:35:11.978Z,2.30
2019-04-14T05:37:42.111Z,2.40
2019-04-14T05:40:12.481Z,2.50
2019-04-14T05:42:42.759Z,2.70
2019-04-14T05:45:13.339Z,2.70
2019-04-14T05:47:43.638Z,2.80
2019-04-14T05:50:13.688Z,2.80
2019-04-14T05:52:44.643Z,2.80
2019-04-14T05:55:15.520Z,3.00
2019-04-14T05:57:45.994Z,3.20
2019-04-14T06:00:17.411Z,3.20
2019-04-14T06:02:48.388Z,3.30
2019-04-14T06:05:18.991Z,3.40
2019-04-14T06:07:48.835Z,3.60
2019-04-14T06:10:18.383Z,3.60
2019-04-14T06:12:47.907Z,3.70
2019-04-14T06:15:17.889Z,3.90
2019-04-14T06:17:47.676Z,4.00
2019-04-14T06:20:17.394Z,4.20
2019-04-14T06:22:47.091Z,4.40
2019-04-14T06:25:16.636Z,4.30
2019-04-14T06:27:46.242Z,4.40
2019-04-14T06:30:18.682Z,4.60
2019-04-14T06:32:49.358Z,4.50
2019-04-14T06:35:20.607Z,4.30
2019-04-14T06:38:05.857Z,4.40
2019-04-14T06:40:39.900Z,4.60
2019-04-14T06:43:11.717Z,4.60
2019-04-14T06:45:41.114Z,4.90
2019-04-14T06:48:10.577Z,5.20
2019-04-14T06:50:40.228Z,5.50
2019-04-14T06:53:09.758Z,5.80
2019-04-14T06:55:39.549Z,5.60
2019-04-14T06:58:09.247Z,5.30
2019-04-14T07:00:38.791Z,5.50
2019-04-14T07:03:08.563Z,5.60
2019-04-14T07:05:38.278Z,5.50
2019-04-14T07:08:07.812Z,5.60
2019-04-14T07:10:37.491Z,5.50
2019-04-14T07:13:07.199Z,5.70
2019-04-14T07:15:37.376Z,5.90
2019-04-14T07:18:07.233Z,6.10
2019-04-14T07:20:36.776Z,6.40
2019-04-14T07:23:06.304Z,6.20
2019-04-14T07:25:36.011Z,5.90
2019-04-14T07:28:05.799Z,5.50
2019-04-14T07:30:36.912Z,5.80
2019-04-14T07:33:24.451Z,5.60
2019-04-14T07:36:10.892Z,5.40
2019-04-14T07:38:44.770Z,5.80
2019-04-14T07:41:22.095Z,5.90
2019-04-14T07:44:11.394Z,5.80
2019-04-14T07:46:42.656Z,5.80
2019-04-14T07:49:19.767Z,6.00
2019-04-14T07:52:05.980Z,6.30
2019-04-14T07:54:41.342Z,6.40
2019-04-14T07:57:19.115Z,6.60
2019-04-14T07:59:56.439Z,6.50
2019-04-14T08:02:44.027Z,6.50
2019-04-14T08:05:15.356Z,6.50
2019-04-14T08:07:45.730Z,6.20
2019-04-14T08:10:15.399Z,6.20
2019-04-14T08:12:45.079Z,6.20
2019-04-14T08:15:15.099Z,6.20
2019-04-14T08:17:44.571Z,6.40
2019-04-14T08:20:26.940Z,6.20
2019-04-14T08:22:46.433Z,5.70
2019-04-14T08:25:16.148Z,5.70
2019-04-14T08:27:45.680Z,5.70
2019-04-14T08:30:15.483Z,5.70
2019-04-14T08:32:44.955Z,5.50
2019-04-14T08:35:14.493Z,5.60
2019-04-14T08:37:44.111Z,5.60
2019-04-14T08:40:14.115Z,5.70
2019-04-14T08:43:01.846Z,5.70
2019-04-14T08:45:48.376Z,5.70
2019-04-14T08:48:25.493Z,5.80
2019-04-14T08:51:00.035Z,5.60
2019-04-14T08:53:34.773Z,5.80
2019-04-14T08:56:22.579Z,5.90
2019-04-14T08:58:53.904Z,6.10
2019-04-14T09:01:25.703Z,5.70
2019-04-14T09:04:12.005Z,5.60
2019-04-14T09:06:43.761Z,5.60
2019-04-14T09:09:27.192Z,5.70
2019-04-14T09:11:58.757Z,5.90
2019-04-14T09:14:28.445Z,6.00
2019-04-14T09:16:58.020Z,6.10
2019-04-14T09:19:27.552Z,6.30
2019-04-14T09:21:57.320Z,6.60
2019-04-14T09:24:26.976Z,6.60
2019-04-14T09:26:56.451Z,6.50
2019-04-14T09:29:25.979Z,6.60
2019-04-14T09:31:55.653Z,6.50
2019-04-14T09:34:25.372Z,6.50
2019-04-14T09:36:55.287Z,6.30
2019-04-14T09:39:24.854Z,6.30
2019-04-14T09:41:54.505Z,6.40
2019-04-14T09:44:24.051Z,6.60
2019-04-14T09:46:53.885Z,6.80
2019-04-14T09:49:23.420Z,7.00
2019-04-14T09:51:53.249Z,7.10
2019-04-14T09:54:22.971Z,7.30
2019-04-14T09:56:52.515Z,7.10
2019-04-14T09:59:22.051Z,7.10
2019-04-14T10:01:51.877Z,6.90
2019-04-14T10:04:21.332Z,6.90
2019-04-14T10:06:51.122Z,6.70
2019-04-14T10:09:20.869Z,6.70
2019-04-14T10:11:54.673Z,6.60
2019-04-14T10:14:21.771Z,6.50
2019-04-14T10:16:51.302Z,6.50
2019-04-14T10:19:20.831Z,6.50
2019-04-14T10:21:50.481Z,6.50
2019-04-14T10:24:20.243Z,6.50
2019-04-14T10:26:49.883Z,6.50
2019-04-14T10:29:19.426Z,6.40
2019-04-14T10:31:48.966Z,6.40
2019-04-14T10:34:18.496Z,6.30
2019-04-14T10:36:48.215Z,6.40
2019-04-14T10:39:17.743Z,6.20
2019-04-14T10:41:47.368Z,6.30
2019-04-14T10:44:16.839Z,6.30
2019-04-14T10:46:46.368Z,6.40
2019-04-14T10:49:15.903Z,6.50
2019-04-14T10:51:46.314Z,6.40
2019-04-14T10:54:16.072Z,6.40
2019-04-14T10:56:45.691Z,6.40
2019-04-14T10:59:15.695Z,6.40
2019-04-14T11:01:45.504Z,6.30
2019-04-14T11:04:15.038Z,6.10
2019-04-14T11:06:46.218Z,6.20
2019-04-14T11:09:16.058Z,6.20
2019-04-14T11:11:45.676Z,6.20
2019-04-14T11:14:15.283Z,6.10
2019-04-14T11:16:44.818Z,6.10
2019-04-14T11:19:14.729Z,5.90
2019-04-14T11:21:44.431Z,5.80
2019-04-14T11:24:14.137Z,5.70
2019-04-14T11:26:43.663Z,5.70
2019-04-14T11:29:13.143Z,5.80
2019-04-14T11:31:50.195Z,5.90
2019-04-14T11:34:24.100Z,6.00
2019-04-14T11:36:55.288Z,5.90
2019-04-14T11:39:24.829Z,6.10
2019-04-14T11:41:54.603Z,6.20
2019-04-14T11:44:24.566Z,6.20
2019-04-14T11:46:54.594Z,5.90
2019-04-14T11:49:24.280Z,5.50
2019-04-14T11:51:55.644Z,5.50
2019-04-14T11:54:25.566Z,5.50
2019-04-14T11:56:55.406Z,5.40
2019-04-14T11:59:26.799Z,5.40
2019-04-14T12:02:01.090Z,5.30
2019-04-14T12:04:32.541Z,5.30
2019-04-14T12:07:12.920Z,5.20
2019-04-14T12:09:56.519Z,5.30
2019-04-14T12:12:26.348Z,5.50
2019-04-14T12:14:56.052Z,5.20
2019-04-14T12:17:25.583Z,5.10
2019-04-14T12:19:55.191Z,5.30
2019-04-14T12:22:24.713Z,5.30
2019-04-14T12:24:54.331Z,5.20
2019-04-14T12:27:24.084Z,5.30
2019-04-14T12:29:54.482Z,5.20
2019-04-14T12:32:24.247Z,5.30
2019-04-14T12:34:53.780Z,5.30
2019-04-14T12:37:23.327Z,5.00
2019-04-14T12:39:52.850Z,4.90
2019-04-14T12:42:24.235Z,4.90
2019-04-14T12:44:58.523Z,4.90
2019-04-14T12:47:40.308Z,5.00
2019-04-14T12:50:20.807Z,5.00
2019-04-14T12:52:50.746Z,5.00
2019-04-14T12:55:20.375Z,5.10
2019-04-14T12:57:51.741Z,5.10
2019-04-14T13:00:38.483Z,5.20
2019-04-14T13:03:08.839Z,5.30
2019-04-14T13:05:38.587Z,5.30
2019-04-14T13:08:08.396Z,5.30
2019-04-14T13:10:38.093Z,5.10
2019-04-14T13:13:07.630Z,5.10
2019-04-14T13:15:37.308Z,5.20
2019-04-14T13:18:06.915Z,5.30
2019-04-14T13:20:36.456Z,5.20
2019-04-14T13:23:05.984Z,5.20
2019-04-14T13:25:35.632Z,5.20
2019-04-14T13:28:05.734Z,5.10
2019-04-14T13:30:37.147Z,5.10
2019-04-14T13:33:06.595Z,5.10
2019-04-14T13:35:36.182Z,5.00
2019-04-14T13:38:05.699Z,5.10
2019-04-14T13:40:35.239Z,5.10
2019-04-14T13:43:05.933Z,5.20
2019-04-14T13:45:35.578Z,5.20
2019-04-14T13:48:05.207Z,5.20
2019-04-14T13:50:34.759Z,5.20
2019-04-14T13:53:04.291Z,5.10
2019-04-14T13:55:33.764Z,5.10
2019-04-14T13:58:03.535Z,5.10
2019-04-14T14:00:33.319Z,5.10
2019-04-14T14:03:03.055Z,5.10
2019-04-14T14:05:32.522Z,5.10
2019-04-14T14:08:02.340Z,5.10
2019-04-14T14:10:32.842Z,5.10
2019-04-14T14:13:20.543Z,5.20
2019-04-14T14:16:09.990Z,5.00
2019-04-14T14:18:57.768Z,5.00
2019-04-14T14:21:34.662Z,5.00
2019-04-14T14:24:05.904Z,5.10
2019-04-14T14:26:39.795Z,5.20
2019-04-14T14:29:09.323Z,5.20
2019-04-14T14:31:38.876Z,5.10
2019-04-14T14:34:08.533Z,5.20
2019-04-14T14:36:38.094Z,5.20
2019-04-14T14:39:09.851Z,5.10
2019-04-14T14:41:39.459Z,5.00
2019-04-14T14:44:09.024Z,5.00
2019-04-14T14:46:46.482Z,5.10
2019-04-14T14:49:32.807Z,5.20
2019-04-14T14:52:10.107Z,5.30
2019-04-14T14:54:39.628Z,5.40
2019-04-14T14:57:09.183Z,5.40
2019-04-14T14:59:38.654Z,5.40
2019-04-14T15:02:08.203Z,5.30
2019-04-14T15:04:37.761Z,5.30
2019-04-14T15:07:07.365Z,5.40
2019-04-14T15:09:37.222Z,5.50
2019-04-14T15:12:06.868Z,5.70
2019-04-14T15:14:36.395Z,5.70
2019-04-14T15:17:08.389Z,5.80
2019-04-14T15:19:37.282Z,5.80
2019-04-14T15:22:06.844Z,5.80
2019-04-14T15:24:36.368Z,5.90
2019-04-14T15:27:05.922Z,6.00
2019-04-14T15:29:35.436Z,6.20
2019-04-14T15:32:05.015Z,6.30
2019-04-14T15:34:34.567Z,6.40
2019-04-14T15:37:04.302Z,6.40
2019-04-14T15:39:33.823Z,6.40
2019-04-14T15:42:03.390Z,6.40
2019-04-14T15:44:32.912Z,6.40
2019-04-14T15:47:02.399Z,6.20
2019-04-14T15:49:31.864Z,6.20
2019-04-14T15:52:01.425Z,6.20
2019-04-14T15:54:31.028Z,6.00
2019-04-14T15:57:20.111Z,5.90
2019-04-14T15:59:54.367Z,5.90
2019-04-14T16:02:37.345Z,6.00
2019-04-14T16:05:12.664Z,5.90
2019-04-14T16:07:44.127Z,6.00
2019-04-14T16:10:24.307Z,6.00
2019-04-14T16:15:48.923Z,6.00
2019-04-14T16:18:29.596Z,6.00
2019-04-14T16:20:59.319Z,6.00
2019-04-14T16:23:28.811Z,6.20
2019-04-14T16:26:17.955Z,6.20
2019-04-14T16:28:52.207Z,6.20
2019-04-14T16:31:29.452Z,6.20
2019-04-14T16:34:19.103Z,6.20
2019-04-14T16:36:50.572Z,6.10
2019-04-14T16:39:20.387Z,6.20
2019-04-14T16:41:50.193Z,6.20
2019-04-14T16:44:19.718Z,6.10
2019-04-14T16:46:49.412Z,6.00
2019-04-14T16:49:19.107Z,6.00
2019-04-14T16:51:59.575Z,6.10
2019-04-14T16:54:30.919Z,6.10
2019-04-14T16:57:02.213Z,6.10
2019-04-14T16:59:31.971Z,6.20
2019-04-14T17:02:10.729Z,6.20
2019-04-14T17:04:32.895Z,6.20
2019-04-14T17:07:02.419Z,6.20
2019-04-14T17:09:31.976Z,6.10
2019-04-14T17:12:01.435Z,6.10
2019-04-14T17:14:36.280Z,6.10
2019-04-14T17:17:20.111Z,6.20
2019-04-14T17:19:51.928Z,6.30
2019-04-14T17:22:23.233Z,6.30
2019-04-14T17:25:03.633Z,6.20
2019-04-14T17:27:35.042Z,6.20
2019-04-14T17:30:08.464Z,6.20
2019-04-14T17:32:39.670Z,6.20
2019-04-14T17:35:19.785Z,6.20
2019-04-14T17:37:53.672Z,6.30
2019-04-14T17:40:33.735Z,6.30
2019-04-14T17:43:11.123Z,6.20
2019-04-14T17:45:45.407Z,6.30
2019-04-14T17:48:16.855Z,6.40
2019-04-14T17:50:48.199Z,6.20
2019-04-14T17:53:19.550Z,6.00
2019-04-14T17:55:59.981Z,6.00
2019-04-14T17:58:31.192Z,5.90
2019-04-14T18:01:18.848Z,5.90
2019-04-14T18:03:56.123Z,5.80
2019-04-14T18:06:27.423Z,5.80
2019-04-14T18:09:01.830Z,5.80
2019-04-14T18:11:42.023Z,5.90
2019-04-14T18:14:22.111Z,6.10
2019-04-14T18:17:02.723Z,6.10
2019-04-14T18:19:43.423Z,6.20
2019-04-14T18:22:12.986Z,6.10
2019-04-14T18:24:43.063Z,5.90
2019-04-14T18:27:12.623Z,6.00
2019-04-14T18:29:53.635Z,6.10
2019-04-14T18:32:27.752Z,6.30
2019-04-14T18:35:01.940Z,6.30
2019-04-14T18:37:35.991Z,6.20
2019-04-14T18:40:13.716Z,6.20
2019-04-14T18:42:54.192Z,6.10
2019-04-14T18:45:34.223Z,6.00
2019-04-14T18:48:05.618Z,6.20
2019-04-14T18:50:45.764Z,6.20
2019-04-14T18:53:26.282Z,6.10
2019-04-14T18:56:13.800Z,6.00
2019-04-14T18:58:51.014Z,6.00
2019-04-14T19:01:22.179Z,5.90
2019-04-14T19:03:51.815Z,5.80
2019-04-14T19:06:21.277Z,5.80
2019-04-14T19:08:51.995Z,5.80
2019-04-14T19:11:40.073Z,5.80
2019-04-14T19:14:11.401Z,5.90
2019-04-14T19:16:59.051Z,5.90
2019-04-14T19:19:28.616Z,5.90
2019-04-14T19:21:58.136Z,5.90
2019-04-14T19:24:27.763Z,6.00
2019-04-14T19:26:57.388Z,6.00
2019-04-14T19:29:27.866Z,6.00
2019-04-14T19:31:57.634Z,5.90
2019-04-14T19:34:27.639Z,5.90
2019-04-14T19:36:57.410Z,6.00
2019-04-14T19:39:27.070Z,6.00
2019-04-14T19:41:56.599Z,6.10
2019-04-14T19:44:26.152Z,6.20
2019-04-14T19:46:55.720Z,6.20
2019-04-14T19:49:25.277Z,6.30
2019-04-14T19:51:54.820Z,6.30
2019-04-14T19:54:24.665Z,6.40
2019-04-14T19:56:54.503Z,6.40
2019-04-14T19:59:24.064Z,6.60
2019-04-14T20:01:53.559Z,6.50
2019-04-14T20:04:23.273Z,6.60
2019-04-14T20:06:52.763Z,6.70
2019-04-14T20:09:22.464Z,6.70
2019-04-14T20:11:52.276Z,6.70
2019-04-14T20:14:21.831Z,6.70
2019-04-14T20:16:58.683Z,6.80
2019-04-14T20:19:29.890Z,6.80
2019-04-14T20:22:06.803Z,6.80
2019-04-14T20:24:38.224Z,6.70
2019-04-14T20:27:15.471Z,6.70
2019-04-14T20:29:47.386Z,6.60
2019-04-14T20:32:18.792Z,6.50
2019-04-14T20:34:48.331Z,6.50
2019-04-14T20:37:17.791Z,6.40
2019-04-14T20:39:47.265Z,6.50
2019-04-14T20:42:16.723Z,6.60
2019-04-14T20:44:46.518Z,6.70
2019-04-14T20:47:16.315Z,6.80
2019-04-14T20:49:45.859Z,6.80
2019-04-14T20:52:15.455Z,6.90
2019-04-14T20:54:45.258Z,7.00
2019-04-14T20:57:14.788Z,7.00
2019-04-14T20:59:44.326Z,7.00
2019-04-14T21:02:30.518Z,7.00
2019-04-14T21:05:17.976Z,7.00
2019-04-14T21:07:58.440Z,6.80
2019-04-14T21:10:29.895Z,6.60
2019-04-14T21:13:20.607Z,6.70
2019-04-14T21:16:12.757Z,6.80
2019-04-14T21:18:50.480Z,6.80
2019-04-14T21:21:21.875Z,6.90
2019-04-14T21:23:55.746Z,6.90
2019-04-14T21:26:29.586Z,6.90
2019-04-14T21:29:09.692Z,7.00
2019-04-14T21:31:43.514Z,7.00
2019-04-14T21:34:20.431Z,7.00
2019-04-14T21:36:52.075Z,7.00
2019-04-14T21:39:29.492Z,6.90
2019-04-14T21:41:59.453Z,6.90
2019-04-14T21:44:29.139Z,6.70
2019-04-14T21:46:58.604Z,6.60
2019-04-14T21:49:28.351Z,6.70
2019-04-14T21:51:59.875Z,6.70
2019-04-14T21:54:29.348Z,6.60
2019-04-14T21:57:16.947Z,6.60
2019-04-14T22:00:04.271Z,6.40
2019-04-14T22:02:51.624Z,6.40
2019-04-14T22:05:39.332Z,6.50
2019-04-14T22:08:19.196Z,6.40
2019-04-14T22:11:02.675Z,6.20
2019-04-14T22:13:32.223Z,6.10
2019-04-14T22:16:01.680Z,6.10
2019-04-14T22:18:31.191Z,6.00
2019-04-14T22:21:00.654Z,5.90
2019-04-14T22:23:30.223Z,5.90
2019-04-14T22:25:59.691Z,5.90
2019-04-14T22:28:29.327Z,5.80
2019-04-14T22:30:58.948Z,5.80
2019-04-14T22:33:28.408Z,5.90
2019-04-14T22:35:58.431Z,5.90
2019-04-14T22:38:28.135Z,5.90
2019-04-14T22:40:57.603Z,5.90
2019-04-14T22:43:27.315Z,5.90
2019-04-14T22:45:56.954Z,5.90
2019-04-14T22:48:26.428Z,5.90
2019-04-14T22:50:56.079Z,5.90
2019-04-14T22:53:25.627Z,5.90
2019-04-14T22:55:55.155Z,5.90
2019-04-14T22:58:24.685Z,5.90
2019-04-14T23:00:55.969Z,5.90
2019-04-14T23:03:36.353Z,5.90
2019-04-14T23:06:16.507Z,5.90
2019-04-14T23:08:56.941Z,6.00
2019-04-14T23:11:44.550Z,5.90
2019-04-14T23:14:27.867Z,6.00
2019-04-14T23:17:11.167Z,6.10
2019-04-14T23:19:51.132Z,6.10
2019-04-14T23:22:34.299Z,6.10
2019-04-14T23:25:04.587Z,6.10
2019-04-14T23:27:34.040Z,6.10
2019-04-14T23:30:05.131Z,6.10
2019-04-14T23:32:34.830Z,6.10
2019-04-14T23:35:06.675Z,6.20
2019-04-14T23:37:36.213Z,6.10
2019-04-14T23:40:07.483Z,6.10
2019-04-14T23:42:37.085Z,6.00
2019-04-14T23:45:08.579Z,6.00
2019-04-14T23:47:38.119Z,6.00
2019-04-14T23:50:08.499Z,6.00
2019-04-14T23:52:38.332Z,6.10
2019-04-14T23:55:08.771Z,6.10
2019-04-14T23:57:38.294Z,6.10
